createdAt,value
2017-11-05T00:02:15.789Z,5.60
2017-11-05T00:04:43.355Z,6.00
2017-11-05T00:07:10.950Z,5.87
2017-11-05T00:09:39.284Z,6.82
2017-11-05T00:12:06.853Z,7.03
2017-11-05T00:14:34.444Z,6.85
2017-11-05T00:17:02.771Z,6.90
2017-11-05T00:19:30.349Z,6.25
2017-11-05T00:21:57.937Z,5.85
2017-11-05T00:24:26.242Z,6.75
2017-11-05T00:26:53.796Z,6.55
2017-11-05T00:29:21.393Z,6.15
2017-11-05T00:31:48.958Z,5.85
2017-11-05T00:34:16.518Z,5.60
2017-11-05T00:36:44.107Z,5.90
2017-11-05T00:39:12.421Z,5.30
2017-11-05T00:41:39.994Z,4.90
2017-11-05T00:44:07.573Z,5.35
2017-11-05T00:46:35.131Z,5.25
2017-11-05T00:49:03.443Z,5.37
2017-11-05T00:51:31.781Z,4.90
2017-11-05T00:53:59.321Z,5.25
2017-11-05T00:56:26.868Z,5.82
2017-11-05T00:58:54.445Z,5.32
2017-11-05T01:01:22.020Z,5.70
2017-11-05T01:03:49.572Z,4.72
2017-11-05T01:06:17.139Z,4.12
2017-11-05T01:08:44.676Z,4.87
2017-11-05T01:11:12.240Z,4.90
2017-11-05T01:13:39.845Z,4.68
2017-11-05T01:16:07.395Z,4.53
2017-11-05T01:18:34.960Z,4.47
2017-11-05T01:21:02.569Z,4.70
2017-11-05T01:23:30.122Z,4.20
2017-11-05T01:25:57.708Z,4.90
2017-11-05T01:28:25.288Z,4.07
2017-11-05T01:30:52.854Z,4.37
2017-11-05T01:33:20.441Z,4.53
2017-11-05T01:35:48.814Z,4.60
2017-11-05T01:38:17.129Z,3.80
2017-11-05T01:40:44.701Z,4.75
2017-11-05T01:43:12.305Z,4.60
2017-11-05T01:45:39.867Z,5.10
2017-11-05T01:48:08.186Z,3.92
2017-11-05T01:50:35.767Z,4.30
2017-11-05T01:53:03.299Z,4.15
2017-11-05T01:55:30.889Z,4.05
2017-11-05T01:57:58.499Z,3.85
2017-11-05T02:00:26.812Z,4.00
2017-11-05T02:02:54.347Z,4.20
2017-11-05T02:05:21.950Z,4.12
2017-11-05T02:07:49.507Z,3.92
2017-11-05T02:10:17.087Z,3.83
2017-11-05T02:12:44.686Z,4.45
2017-11-05T02:15:12.251Z,4.25
2017-11-05T02:17:39.790Z,5.45
2017-11-05T02:20:08.155Z,3.85
2017-11-05T02:22:36.519Z,3.70
2017-11-05T02:25:04.099Z,3.65
2017-11-05T02:27:32.483Z,4.97
2017-11-05T02:30:00.834Z,4.12
2017-11-05T02:32:28.392Z,3.37
2017-11-05T02:34:56.005Z,4.30
2017-11-05T02:37:24.320Z,4.37
2017-11-05T02:39:51.865Z,3.70
2017-11-05T02:42:19.454Z,5.93
2017-11-05T02:44:47.069Z,4.55
2017-11-05T02:47:14.749Z,4.00
2017-11-05T02:49:42.405Z,3.33
2017-11-05T02:52:09.983Z,5.00
2017-11-05T02:54:37.583Z,3.70
2017-11-05T02:57:05.972Z,4.25
2017-11-05T02:59:34.313Z,3.60
2017-11-05T03:02:01.900Z,4.80
2017-11-05T03:04:30.260Z,4.53
2017-11-05T03:06:57.832Z,3.47
2017-11-05T03:09:26.223Z,3.55
2017-11-05T03:11:54.624Z,3.62
2017-11-05T03:14:22.233Z,4.50
2017-11-05T03:16:49.820Z,4.40
2017-11-05T03:19:18.190Z,4.43
2017-11-05T03:21:45.799Z,4.05
2017-11-05T03:24:13.365Z,4.10
2017-11-05T03:26:40.964Z,3.58
2017-11-05T03:29:09.302Z,4.25
2017-11-05T03:31:36.903Z,3.65
2017-11-05T03:34:05.307Z,3.50
2017-11-05T03:36:32.899Z,3.97
2017-11-05T03:39:00.485Z,3.58
2017-11-05T03:41:28.115Z,3.87
2017-11-05T03:43:55.704Z,3.20
2017-11-05T03:46:23.279Z,3.70
2017-11-05T03:48:50.906Z,2.62
2017-11-05T03:51:18.493Z,3.25
2017-11-05T03:53:46.083Z,3.30
2017-11-05T03:56:14.460Z,4.03
2017-11-05T03:58:42.830Z,3.10
2017-11-05T04:01:11.198Z,3.92
2017-11-05T04:03:38.791Z,3.40
2017-11-05T04:06:06.377Z,3.85
2017-11-05T04:08:33.977Z,3.00
2017-11-05T04:11:01.591Z,3.40
2017-11-05T04:13:29.167Z,4.05
2017-11-05T04:15:56.773Z,3.47
2017-11-05T04:18:25.163Z,3.58
2017-11-05T04:20:52.769Z,3.60
2017-11-05T04:23:20.354Z,3.30
2017-11-05T04:25:47.983Z,3.30
2017-11-05T04:28:15.562Z,3.37
2017-11-05T04:30:43.146Z,3.72
2017-11-05T04:33:11.529Z,3.67
2017-11-05T04:35:39.915Z,3.97
2017-11-05T04:38:08.300Z,3.97
2017-11-05T04:40:36.681Z,4.03
2017-11-05T04:43:05.028Z,4.12
2017-11-05T04:45:32.629Z,3.50
2017-11-05T04:48:00.247Z,3.67
2017-11-05T04:50:27.833Z,3.33
2017-11-05T04:52:56.185Z,3.35
2017-11-05T04:55:23.794Z,2.90
2017-11-05T04:57:51.398Z,3.25
2017-11-05T05:00:19.777Z,3.20
2017-11-05T05:02:47.384Z,3.10
2017-11-05T05:05:14.965Z,2.65
2017-11-05T05:07:42.542Z,2.87
2017-11-05T05:10:10.165Z,2.80
2017-11-05T05:12:37.753Z,2.70
2017-11-05T05:15:05.335Z,2.70
2017-11-05T05:17:32.953Z,4.03
2017-11-05T05:20:00.588Z,3.47
2017-11-05T05:22:28.950Z,2.60
2017-11-05T05:24:56.536Z,2.92
2017-11-05T05:27:25.027Z,2.20
2017-11-05T05:29:52.619Z,2.50
2017-11-05T05:32:20.241Z,2.90
2017-11-05T05:34:47.854Z,2.50
2017-11-05T05:37:15.461Z,2.85
2017-11-05T05:39:43.068Z,2.65
2017-11-05T05:42:10.657Z,2.28
2017-11-05T05:44:38.267Z,2.00
2017-11-05T05:47:05.878Z,2.50
2017-11-05T05:49:34.225Z,2.30
2017-11-05T05:52:01.830Z,2.08
2017-11-05T05:54:30.218Z,1.87
2017-11-05T05:56:57.803Z,2.28
2017-11-05T05:59:25.383Z,2.15
2017-11-05T06:01:53.014Z,2.50
2017-11-05T06:04:20.638Z,2.15
2017-11-05T06:06:49.005Z,3.53
2017-11-05T06:09:16.646Z,2.42
2017-11-05T06:11:44.216Z,2.08
2017-11-05T06:14:11.812Z,2.53
2017-11-05T06:16:40.251Z,2.78
2017-11-05T06:19:07.839Z,2.20
2017-11-05T06:21:36.168Z,2.37
2017-11-05T06:24:03.806Z,2.45
2017-11-05T06:26:31.395Z,2.45
2017-11-05T06:28:58.975Z,2.40
2017-11-05T06:31:26.577Z,2.22
2017-11-05T06:33:54.179Z,2.65
2017-11-05T06:36:21.764Z,2.20
2017-11-05T06:38:49.376Z,2.47
2017-11-05T06:41:16.966Z,2.65
2017-11-05T06:43:44.585Z,2.90
2017-11-05T06:46:12.211Z,3.00
2017-11-05T06:48:39.829Z,2.95
2017-11-05T06:51:07.434Z,2.90
2017-11-05T06:53:35.073Z,3.47
2017-11-05T06:56:02.667Z,2.90
2017-11-05T06:58:31.022Z,3.35
2017-11-05T07:00:58.650Z,3.92
2017-11-05T07:03:26.270Z,3.95
2017-11-05T07:05:54.634Z,3.60
2017-11-05T07:08:22.235Z,4.35
2017-11-05T07:10:49.807Z,3.78
2017-11-05T07:13:17.403Z,6.07
2017-11-05T07:15:45.143Z,4.22
2017-11-05T07:18:12.744Z,4.60
2017-11-05T07:20:41.093Z,4.18
2017-11-05T07:23:08.703Z,5.68
2017-11-05T07:25:37.063Z,5.60
2017-11-05T07:28:05.427Z,5.87
2017-11-05T07:30:33.058Z,5.80
2017-11-05T07:33:01.411Z,5.50
2017-11-05T07:35:28.999Z,4.65
2017-11-05T07:37:56.616Z,3.70
2017-11-05T07:40:24.221Z,4.05
2017-11-05T07:42:51.824Z,4.53
2017-11-05T07:45:20.226Z,3.83
2017-11-05T07:47:47.811Z,3.80
2017-11-05T07:50:15.384Z,3.50
2017-11-05T07:52:43.764Z,2.95
2017-11-05T07:55:11.365Z,2.92
2017-11-05T07:57:39.748Z,4.30
2017-11-05T08:00:08.154Z,4.87
2017-11-05T08:02:35.787Z,7.40
2017-11-05T08:05:04.157Z,6.87
2017-11-05T08:07:32.527Z,6.57
2017-11-05T08:10:00.133Z,6.18
2017-11-05T08:12:27.704Z,6.00
2017-11-05T08:14:55.328Z,5.10
2017-11-05T08:17:23.705Z,5.85
2017-11-05T08:19:52.065Z,6.20
2017-11-05T08:22:19.685Z,7.05
2017-11-05T08:24:47.272Z,7.45
2017-11-05T08:27:14.876Z,7.05
2017-11-05T08:29:42.470Z,8.63
2017-11-05T08:32:10.059Z,10.32
2017-11-05T08:34:37.691Z,10.50
2017-11-05T08:37:05.279Z,11.07
2017-11-05T08:39:32.863Z,11.55
2017-11-05T08:42:01.267Z,11.73
2017-11-05T08:44:28.889Z,12.05
2017-11-05T08:46:57.232Z,11.70
2017-11-05T08:49:24.790Z,11.10
2017-11-05T08:51:52.398Z,12.57
2017-11-05T08:54:20.781Z,12.90
2017-11-05T08:56:49.126Z,11.87
2017-11-05T08:59:16.734Z,10.13
2017-11-05T09:01:44.321Z,13.48
2017-11-05T09:04:11.914Z,11.90
2017-11-05T09:06:39.520Z,13.20
2017-11-05T09:09:07.081Z,12.83
2017-11-05T09:11:34.689Z,12.30
2017-11-05T09:14:02.298Z,11.70
2017-11-05T09:16:29.876Z,10.90
2017-11-05T09:18:57.444Z,12.70
2017-11-05T09:21:25.049Z,14.43
2017-11-05T09:23:52.598Z,16.13
2017-11-05T09:26:20.191Z,15.80
2017-11-05T09:28:48.539Z,11.80
2017-11-05T09:31:16.117Z,13.00
2017-11-05T09:33:44.440Z,11.40
2017-11-05T09:36:12.054Z,12.00
2017-11-05T09:38:40.383Z,12.40
2017-11-05T09:41:07.930Z,11.50
2017-11-05T09:43:35.531Z,11.60
2017-11-05T09:46:03.097Z,11.50
2017-11-05T09:48:30.651Z,11.23
2017-11-05T09:50:58.245Z,8.93
2017-11-05T09:53:26.569Z,10.93
2017-11-05T09:55:54.125Z,9.03
2017-11-05T09:58:21.728Z,8.53
2017-11-05T10:00:50.054Z,8.77
2017-11-05T10:03:17.606Z,9.90
2017-11-05T10:05:45.218Z,9.73
2017-11-05T10:08:14.273Z,9.90
2017-11-05T10:10:41.854Z,9.07
2017-11-05T10:13:09.464Z,10.80
2017-11-05T10:15:37.017Z,9.77
2017-11-05T10:18:05.349Z,8.60
2017-11-05T10:20:32.946Z,9.03
2017-11-05T10:23:01.264Z,9.37
2017-11-05T10:25:28.817Z,9.17
2017-11-05T10:27:56.395Z,9.20
2017-11-05T10:30:23.962Z,7.97
2017-11-05T10:32:51.531Z,8.57
2017-11-05T10:35:19.132Z,8.13
2017-11-05T10:37:47.454Z,8.17
2017-11-05T10:40:15.014Z,7.97
2017-11-05T10:42:42.618Z,8.27
2017-11-05T10:45:10.941Z,8.83
2017-11-05T10:47:38.504Z,8.00
2017-11-05T10:50:06.239Z,8.93
2017-11-05T10:52:33.818Z,8.43
2017-11-05T10:55:01.383Z,8.20
2017-11-05T10:57:28.984Z,7.80
2017-11-05T10:59:56.552Z,9.20
2017-11-05T11:02:24.886Z,8.50
2017-11-05T11:04:52.466Z,6.97
2017-11-05T11:07:20.051Z,7.57
2017-11-05T11:09:48.376Z,8.43
2017-11-05T11:12:15.964Z,7.17
2017-11-05T11:14:43.534Z,8.23
2017-11-05T11:17:11.103Z,8.20
2017-11-05T11:19:38.697Z,11.87
2017-11-05T11:22:06.248Z,8.63
2017-11-05T11:24:33.813Z,8.07
2017-11-05T11:27:01.421Z,8.60
2017-11-05T11:29:28.989Z,7.47
2017-11-05T11:31:56.553Z,7.27
2017-11-05T11:34:24.148Z,6.67
2017-11-05T11:36:51.695Z,8.27
2017-11-05T11:39:20.036Z,8.50
2017-11-05T11:41:47.647Z,7.77
2017-11-05T11:44:15.226Z,6.73
2017-11-05T11:46:42.782Z,6.57
2017-11-05T11:49:10.389Z,6.53
2017-11-05T11:51:37.978Z,7.83
2017-11-05T11:54:06.316Z,7.40
2017-11-05T11:56:33.921Z,6.70
2017-11-05T11:59:02.260Z,7.70
2017-11-05T12:01:29.861Z,7.70
2017-11-05T12:03:57.453Z,8.57
2017-11-05T12:06:25.022Z,8.20
2017-11-05T12:08:52.571Z,7.40
2017-11-05T12:11:20.162Z,7.50
2017-11-05T12:13:47.729Z,7.23
2017-11-05T12:16:15.281Z,7.53
2017-11-05T12:18:42.896Z,7.60
2017-11-05T12:21:10.487Z,7.47
2017-11-05T12:23:38.036Z,6.47
2017-11-05T12:26:05.608Z,8.60
2017-11-05T12:28:33.169Z,7.20
2017-11-05T12:31:00.735Z,5.93
2017-11-05T12:33:28.356Z,6.10
2017-11-05T12:35:55.932Z,6.70
2017-11-05T12:38:23.503Z,7.17
2017-11-05T12:40:51.102Z,5.40
2017-11-05T12:43:19.466Z,5.53
2017-11-05T12:45:47.025Z,4.90
2017-11-05T12:48:15.397Z,3.50
2017-11-05T12:50:42.968Z,3.90
2017-11-05T12:53:10.512Z,3.60
2017-11-05T12:55:38.113Z,3.83
2017-11-05T12:58:06.445Z,4.27
2017-11-05T13:00:34.785Z,4.73
2017-11-05T13:03:02.375Z,4.03
2017-11-05T13:05:29.922Z,4.10
2017-11-05T13:07:58.337Z,3.60
2017-11-05T13:10:25.935Z,4.27
2017-11-05T13:12:53.502Z,2.67
2017-11-05T13:15:21.075Z,2.83
2017-11-05T13:17:48.662Z,5.70
2017-11-05T13:20:16.233Z,13.63
2017-11-05T13:22:43.800Z,9.73
2017-11-05T13:25:11.390Z,4.33
2017-11-05T13:27:38.932Z,3.17
2017-11-05T13:30:07.279Z,2.53
2017-11-05T13:32:34.896Z,2.40
2017-11-05T13:35:02.460Z,2.40
2017-11-05T13:37:30.009Z,1.93
2017-11-05T13:39:57.583Z,1.90
2017-11-05T13:42:25.906Z,1.43
2017-11-05T13:44:53.510Z,2.23
2017-11-05T13:47:21.099Z,2.10
2017-11-05T13:49:48.660Z,1.40
2017-11-05T13:52:16.217Z,1.00
2017-11-05T13:54:43.814Z,1.60
2017-11-05T13:57:11.386Z,1.17
2017-11-05T13:59:39.739Z,1.13
2017-11-05T14:02:07.371Z,0.90
2017-11-05T14:04:34.955Z,0.93
2017-11-05T14:07:02.514Z,1.00
2017-11-05T14:09:30.080Z,1.33
2017-11-05T14:11:57.656Z,1.03
2017-11-05T14:14:25.219Z,0.70
2017-11-05T14:16:53.574Z,0.90
2017-11-05T14:19:21.182Z,0.60
2017-11-05T14:21:48.783Z,0.50
2017-11-05T14:24:16.415Z,0.88
2017-11-05T14:26:43.989Z,0.70
2017-11-05T14:29:11.561Z,0.50
2017-11-05T14:31:39.146Z,0.90
2017-11-05T14:34:06.722Z,0.87
2017-11-05T14:36:35.053Z,0.80
2017-11-05T14:39:03.466Z,0.70
2017-11-05T14:41:31.059Z,0.52
2017-11-05T14:43:58.632Z,0.68
2017-11-05T14:46:26.311Z,0.70
2017-11-05T14:48:53.899Z,0.70
2017-11-05T14:51:21.443Z,0.50
2017-11-05T14:53:49.069Z,0.60
2017-11-05T14:56:16.705Z,0.50
2017-11-05T14:58:45.087Z,0.70
2017-11-05T15:01:13.483Z,0.65
2017-11-05T15:03:41.053Z,0.50
2017-11-05T15:06:08.652Z,0.50
2017-11-05T15:08:36.218Z,2.00
2017-11-05T15:11:03.770Z,3.50
2017-11-05T15:13:32.146Z,0.90
2017-11-05T15:15:59.762Z,0.90
2017-11-05T15:18:27.338Z,0.70
2017-11-05T15:20:54.937Z,0.73
2017-11-05T15:23:22.501Z,0.80
2017-11-05T15:25:50.082Z,0.80
2017-11-05T15:28:18.424Z,0.80
2017-11-05T15:30:46.007Z,0.95
2017-11-05T15:33:13.628Z,1.08
2017-11-05T15:35:41.221Z,0.90
2017-11-05T15:38:08.793Z,0.55
2017-11-05T15:40:37.165Z,0.90
2017-11-05T15:43:04.755Z,0.80
2017-11-05T15:45:32.313Z,1.48
2017-11-05T15:48:00.629Z,0.65
2017-11-05T15:50:28.240Z,0.50
2017-11-05T15:52:56.592Z,1.20
2017-11-05T15:55:24.142Z,2.20
2017-11-05T15:57:51.787Z,1.87
2017-11-05T16:00:19.368Z,1.17
2017-11-05T16:02:46.905Z,1.77
2017-11-05T16:05:14.507Z,0.70
2017-11-05T16:07:42.825Z,0.68
2017-11-05T16:10:10.377Z,0.70
2017-11-05T16:12:38.212Z,0.60
2017-11-05T16:15:06.532Z,0.60
2017-11-05T16:17:34.091Z,0.90
2017-11-05T16:20:01.673Z,1.10
2017-11-05T16:22:29.249Z,0.60
2017-11-05T16:24:56.803Z,0.70
2017-11-05T16:27:25.164Z,1.40
2017-11-05T16:29:52.751Z,0.70
2017-11-05T16:32:20.344Z,0.70
2017-11-05T16:34:48.693Z,0.70
2017-11-05T16:37:16.289Z,0.50
2017-11-05T16:39:43.896Z,0.60
2017-11-05T16:42:11.493Z,4.20
2017-11-05T16:44:39.815Z,2.55
2017-11-05T16:47:07.405Z,1.05
2017-11-05T16:49:34.969Z,4.82
2017-11-05T16:52:02.541Z,2.53
2017-11-05T16:54:30.884Z,2.47
2017-11-05T16:56:59.206Z,1.60
2017-11-05T16:59:27.537Z,0.98
2017-11-05T17:01:55.134Z,1.00
2017-11-05T17:04:23.439Z,1.10
2017-11-05T17:06:51.055Z,1.73
2017-11-05T17:09:18.630Z,1.75
2017-11-05T17:11:46.194Z,1.40
2017-11-05T17:14:14.553Z,1.90
2017-11-05T17:16:42.181Z,3.12
2017-11-05T17:19:09.744Z,2.97
2017-11-05T17:21:37.314Z,2.90
2017-11-05T17:24:04.902Z,5.43
2017-11-05T17:26:32.475Z,4.07
2017-11-05T17:29:00.814Z,1.73
2017-11-05T17:31:28.503Z,0.90
2017-11-05T17:33:56.060Z,1.20
2017-11-05T17:36:23.658Z,1.08
2017-11-05T17:38:52.021Z,1.10
2017-11-05T17:41:20.373Z,0.95
2017-11-05T17:43:47.938Z,1.00
2017-11-05T17:46:15.525Z,0.70
2017-11-05T17:48:43.842Z,2.80
2017-11-05T17:51:11.433Z,1.90
2017-11-05T17:53:39.022Z,3.05
2017-11-05T17:56:07.355Z,9.07
2017-11-05T17:58:34.912Z,1.45
2017-11-05T18:01:02.508Z,2.28
2017-11-05T18:03:30.838Z,9.20
2017-11-05T18:05:58.394Z,2.72
2017-11-05T18:08:25.993Z,1.00
2017-11-05T18:10:53.545Z,1.27
2017-11-05T18:13:21.126Z,1.23
2017-11-05T18:15:49.495Z,1.25
2017-11-05T18:18:17.851Z,3.70
2017-11-05T18:20:45.426Z,4.47
2017-11-05T18:23:13.017Z,2.17
2017-11-05T18:25:40.594Z,12.57
2017-11-05T18:28:08.163Z,3.00
2017-11-05T18:30:35.772Z,2.67
2017-11-05T18:33:03.348Z,1.23
2017-11-05T18:35:31.675Z,0.80
2017-11-05T18:37:59.268Z,0.85
2017-11-05T18:40:26.815Z,1.80
2017-11-05T18:42:54.374Z,2.08
2017-11-05T18:45:22.746Z,13.82
2017-11-05T18:47:50.326Z,5.15
2017-11-05T18:50:17.878Z,9.60
2017-11-05T18:52:45.461Z,1.67
2017-11-05T18:55:13.809Z,1.50
2017-11-05T18:57:41.378Z,7.53
2017-11-05T19:00:09.003Z,3.45
2017-11-05T19:02:36.585Z,0.93
2017-11-05T19:05:04.168Z,0.90
2017-11-05T19:07:33.442Z,0.70
2017-11-05T19:10:00.997Z,0.50
2017-11-05T19:12:28.807Z,0.80
2017-11-05T19:14:57.892Z,0.82
2017-11-05T19:17:26.740Z,0.70
2017-11-05T19:19:54.388Z,0.70
2017-11-05T19:22:21.982Z,1.02
2017-11-05T19:24:49.852Z,0.65
2017-11-05T19:27:17.696Z,0.60
2017-11-05T19:29:45.350Z,0.60
2017-11-05T19:32:12.921Z,0.80
2017-11-05T19:34:40.507Z,0.70
2017-11-05T19:37:08.792Z,0.60
2017-11-05T19:39:37.100Z,0.60
2017-11-05T19:42:04.987Z,0.50
2017-11-05T19:44:33.134Z,0.70
2017-11-05T19:47:00.755Z,0.82
2017-11-05T19:49:28.295Z,0.95
2017-11-05T19:51:55.889Z,0.77
2017-11-05T19:54:24.469Z,0.90
2017-11-05T19:56:52.305Z,0.65
2017-11-05T19:59:19.962Z,0.70
2017-11-05T20:01:47.518Z,0.80
2017-11-05T20:04:15.190Z,0.90
2017-11-05T20:06:42.831Z,1.05
2017-11-05T20:09:10.381Z,0.90
2017-11-05T20:11:38.363Z,0.93
2017-11-05T20:14:06.189Z,1.17
2017-11-05T20:16:34.506Z,0.93
2017-11-05T20:19:02.065Z,0.90
2017-11-05T20:21:29.631Z,0.90
2017-11-05T20:23:57.190Z,0.80
2017-11-05T20:26:24.744Z,1.40
2017-11-05T20:28:52.334Z,1.10
2017-11-05T20:31:19.939Z,1.33
2017-11-05T20:33:47.524Z,1.50
2017-11-05T20:36:15.102Z,1.10
2017-11-05T20:38:43.699Z,1.00
2017-11-05T20:41:11.346Z,1.20
2017-11-05T20:43:38.913Z,1.10
2017-11-05T20:46:06.522Z,1.40
2017-11-05T20:48:34.087Z,1.45
2017-11-05T20:51:01.641Z,1.23
2017-11-05T20:53:29.222Z,1.60
2017-11-05T20:55:56.773Z,1.85
2017-11-05T20:58:24.347Z,1.35
2017-11-05T21:00:51.929Z,1.23
2017-11-05T21:03:19.487Z,1.30
2017-11-05T21:05:47.029Z,1.50
2017-11-05T21:08:14.611Z,1.73
2017-11-05T21:10:42.181Z,1.40
2017-11-05T21:13:09.735Z,1.23
2017-11-05T21:15:37.300Z,1.17
2017-11-05T21:18:04.855Z,1.17
2017-11-05T21:20:32.406Z,1.40
2017-11-05T21:23:00.017Z,1.55
2017-11-05T21:25:27.565Z,1.58
2017-11-05T21:30:29.737Z,1.75
2017-11-05T21:32:58.065Z,1.80
2017-11-05T21:35:25.637Z,1.62
2017-11-05T21:37:53.220Z,1.98
2017-11-05T21:40:20.772Z,1.80
2017-11-05T21:42:48.331Z,2.20
2017-11-05T21:45:15.900Z,1.50
2017-11-05T21:47:43.441Z,1.73
2017-11-05T21:50:10.990Z,1.58
2017-11-05T21:52:38.555Z,1.50
2017-11-05T21:55:07.504Z,1.55
2017-11-05T21:57:35.045Z,1.65
2017-11-05T22:00:03.440Z,1.75
2017-11-05T22:02:31.009Z,1.27
2017-11-05T22:04:58.574Z,1.70
2017-11-05T22:07:26.171Z,2.10
2017-11-05T22:09:53.742Z,1.70
2017-11-05T22:12:21.296Z,2.12
2017-11-05T22:14:48.894Z,3.00
2017-11-05T22:17:17.209Z,1.95
2017-11-05T22:19:44.763Z,1.80
2017-11-05T22:22:12.359Z,2.15
2017-11-05T22:24:39.911Z,1.80
2017-11-05T22:27:07.465Z,1.98
2017-11-05T22:29:35.061Z,1.98
2017-11-05T22:32:03.385Z,2.03
2017-11-05T22:34:30.923Z,2.22
2017-11-05T22:36:58.512Z,1.87
2017-11-05T22:39:26.066Z,1.80
2017-11-05T22:41:55.363Z,2.03
2017-11-05T22:44:22.948Z,2.10
2017-11-05T22:46:50.500Z,2.37
2017-11-05T22:49:18.083Z,1.70
2017-11-05T22:51:45.676Z,3.10
2017-11-05T22:54:13.226Z,2.30
2017-11-05T22:56:41.558Z,2.42
2017-11-05T22:59:09.133Z,2.80
2017-11-05T23:01:36.677Z,2.50
2017-11-05T23:04:04.221Z,2.65
2017-11-05T23:06:31.811Z,2.95
2017-11-05T23:08:59.377Z,2.62
2017-11-05T23:11:26.929Z,2.10
2017-11-05T23:13:55.293Z,2.42
2017-11-05T23:16:22.842Z,2.30
2017-11-05T23:18:50.399Z,2.47
2017-11-05T23:21:17.978Z,2.25
2017-11-05T23:23:45.529Z,1.75
2017-11-05T23:26:13.102Z,2.15
2017-11-05T23:28:40.703Z,1.70
2017-11-05T23:31:09.029Z,2.25
2017-11-05T23:33:36.574Z,1.90
2017-11-05T23:36:04.178Z,1.42
2017-11-05T23:38:32.493Z,1.67
2017-11-05T23:41:00.050Z,2.00
2017-11-05T23:43:27.640Z,1.50
2017-11-05T23:45:55.180Z,2.05
2017-11-05T23:48:22.733Z,1.67
2017-11-05T23:50:50.325Z,1.50
2017-11-05T23:53:17.873Z,2.12
2017-11-05T23:55:45.427Z,2.03
2017-11-05T23:58:13.001Z,2.25
